Time;durP1;ratioP1;P1;durP2;ratioP2;P2;SDS_P1;SDS_P2;PMS_P1;PMS_P2;Temp;Humidity;BMP_temperature;BMP_pressure;BME280_temperature;BME280_humidity;BME280_pressure;Samples;Min_cycle;Max_cycle;Signal;HPM_P1;HPM_P2
2021/12/21 00:00:27;;;;;;;1.85;1.70;;;-2.60;99.90;;;;;;4961128;28;20054;-81
2021/12/21 00:02:57;;;;;;;5.25;3.13;;;-1.40;99.90;;;;;;4973535;29;20042;-81
2021/12/21 00:05:28;;;;;;;4.82;2.97;;;-2.70;99.90;;;;;;4945539;29;20027;-83
2021/12/21 00:07:55;;;;;;;4.63;2.55;;;-1.90;99.90;;;;;;4953097;29;20123;-80
2021/12/21 00:10:25;;;;;;;3.08;2.10;;;-1.90;99.90;;;;;;4965819;28;20031;-81
2021/12/21 00:13:04;;;;;;;7.35;2.47;;;-2.50;99.90;;;;;;4964118;29;20057;-79
2021/12/21 00:15:53;;;;;;;2.83;1.40;;;-0.40;99.90;;;;;;4952127;29;20034;-79
2021/12/21 00:20:54;;;;;;;6.57;1.73;;;-1.70;99.90;;;;;;4974559;28;20047;-84
2021/12/21 00:28:59;;;;;;;7.18;1.95;;;-2.70;99.90;;;;;;4991135;23;20079;-81
2021/12/21 00:31:35;;;;;;;2.40;1.98;;;-3.00;99.90;;;;;;4938828;29;20371;-83
2021/12/21 00:34:02;;;;;;;3.63;2.95;;;-2.70;99.90;;;;;;4913842;29;20031;-80
2021/12/21 00:36:29;;;;;;;2.95;1.73;;;-2.70;99.90;;;;;;4913850;29;20366;-80
2021/12/21 00:38:57;;;;;;;4.97;2.22;;;-1.80;99.90;;;;;;4912444;29;20031;-78
2021/12/21 00:41:26;;;;;;;1.35;1.27;;;-2.60;99.90;;;;;;4934003;29;20084;-93
2021/12/21 00:43:53;;;;;;;3.97;2.53;;;-2.90;99.90;;;;;;4919179;29;20031;-82
2021/12/21 00:46:19;;;;;;;2.63;2.33;;;-2.80;99.90;;;;;;4922976;29;20024;-79
2021/12/21 00:48:50;;;;;;;7.22;3.28;;;-2.90;99.90;;;;;;4933531;29;20334;-79
2021/12/21 00:51:18;;;;;;;3.67;2.00;;;-2.90;99.90;;;;;;4916570;29;20032;-85
2021/12/21 00:53:49;;;;;;;3.00;1.85;;;-1.90;99.90;;;;;;4939683;29;20036;-79
2021/12/21 00:56:15;;;;;;;3.60;3.10;;;-2.00;99.90;;;;;;4916602;29;20038;-78
2021/12/21 00:58:41;;;;;;;2.47;2.33;;;-1.70;99.90;;;;;;4924236;29;20551;-83
2021/12/21 01:01:07;;;;;;;3.80;3.25;;;-2.70;99.90;;;;;;4920225;29;20048;-88
2021/12/21 01:03:49;;;;;;;2.08;1.88;;;-2.30;99.90;;;;;;4923857;29;20043;-86
2021/12/21 01:06:38;;;;;;;3.05;1.50;;;-3.10;99.90;;;;;;4924636;29;20028;-86
2021/12/21 01:11:42;;;;;;;3.28;2.38;;;-3.30;99.90;;;;;;4934569;29;20062;-83
2021/12/21 01:17:04;;;;;;;1.83;1.73;;;-3.40;99.90;;;;;;4945011;29;20071;-80
2021/12/21 01:19:44;;;;;;;2.35;2.17;;;-1.90;99.90;;;;;;4920183;29;20028;-79
2021/12/21 01:23:04;;;;;;;4.50;2.08;;;-1.50;99.90;;;;;;4934502;29;20032;-81
2021/12/21 01:28:10;;;;;;;4.40;2.35;;;-3.60;99.90;;;;;;4921307;29;20051;-83
2021/12/21 01:30:51;;;;;;;15.93;4.07;;;-3.70;99.90;;;;;;4904939;29;20032;-81
2021/12/21 01:36:03;;;;;;;2.08;1.98;;;-3.50;99.90;;;;;;4916725;29;20043;-81
2021/12/21 01:38:41;;;;;;;3.60;1.85;;;-2.40;99.90;;;;;;4903959;29;20047;-79
2021/12/21 01:44:26;;;;;;;2.08;1.92;;;-3.90;99.90;;;;;;4915621;29;20533;-88
2021/12/21 01:52:07;;;;;;;1.92;1.80;;;-2.30;99.90;;;;;;4952306;29;20027;-88
2021/12/21 01:54:33;;;;;;;5.80;3.95;;;-4.00;99.90;;;;;;4953537;29;20170;-78
2021/12/21 01:56:59;;;;;;;2.90;1.70;;;-4.00;99.90;;;;;;4953825;29;20035;-78
2021/12/21 01:59:25;;;;;;;3.70;2.28;;;-2.40;99.90;;;;;;4936389;29;20118;-78
2021/12/21 02:01:51;;;;;;;1.95;1.85;;;-4.00;99.90;;;;;;4953874;29;20075;-78
2021/12/21 02:04:17;;;;;;;8.10;2.42;;;-3.90;99.90;;;;;;4936248;29;20047;-80
2021/12/21 02:06:45;;;;;;;9.88;2.53;;;-4.00;99.90;;;;;;4953947;29;20028;-83
2021/12/21 02:09:12;;;;;;;4.20;2.47;;;-3.40;99.90;;;;;;4954040;29;20023;-80
2021/12/21 02:11:38;;;;;;;2.78;2.08;;;-4.10;99.90;;;;;;4936574;29;20027;-81
2021/12/21 02:14:06;;;;;;;7.63;2.70;;;-2.50;99.90;;;;;;4953426;29;20023;-84
2021/12/21 02:19:26;;;;;;;15.77;2.00;;;-4.00;99.90;;;;;;4953397;29;20447;-81
2021/12/21 02:21:55;;;;;;;2.53;2.42;;;-4.00;99.90;;;;;;4953281;29;20023;-82
2021/12/21 02:24:26;;;;;;;2.17;1.83;;;-4.00;99.90;;;;;;4953662;29;20143;-78
2021/12/21 02:27:06;;;;;;;2.92;1.35;;;-4.00;99.90;;;;;;4936347;29;20065;-78
2021/12/21 02:29:34;;;;;;;2.00;1.90;;;-4.00;99.90;;;;;;4936311;29;20035;-82
2021/12/21 02:32:01;;;;;;;1.30;1.08;;;-4.00;99.90;;;;;;4936274;29;20061;-80
2021/12/21 02:34:27;;;;;;;2.13;1.88;;;-4.00;99.90;;;;;;4953082;29;20105;-77
2021/12/21 02:36:55;;;;;;;3.13;2.92;;;-4.00;99.90;;;;;;4953127;29;20075;-82
2021/12/21 02:39:23;;;;;;;4.22;1.55;;;-4.00;99.90;;;;;;4953483;29;20023;-82
2021/12/21 02:41:48;;;;;;;2.05;1.77;;;-2.10;99.90;;;;;;4935673;29;20027;-79
2021/12/21 02:44:15;;;;;;;2.95;2.72;;;-2.90;99.90;;;;;;4935964;29;20042;-79
2021/12/21 02:46:42;;;;;;;7.32;2.72;;;-4.20;99.90;;;;;;4953090;29;20064;-83
2021/12/21 02:49:10;;;;;;;1.52;1.52;;;-4.20;99.90;;;;;;4935646;29;20151;-80
2021/12/21 02:51:41;;;;;;;2.65;2.28;;;-3.80;99.90;;;;;;4952341;29;20051;-83
2021/12/21 02:54:08;;;;;;;3.78;1.88;;;-4.30;99.90;;;;;;4935583;29;20035;-83
2021/12/21 02:56:34;;;;;;;2.40;2.20;;;-4.40;99.90;;;;;;4952726;29;20035;-77
2021/12/21 02:59:00;;;;;;;0.80;0.80;;;-4.40;99.90;;;;;;4952674;29;20029;-83
2021/12/21 03:01:28;;;;;;;9.73;1.83;;;-4.40;99.90;;;;;;4952548;29;20111;-78
2021/12/21 03:03:54;;;;;;;2.63;2.43;;;-4.50;99.90;;;;;;4935595;29;20138;-79
2021/12/21 03:09:26;;;;;;;2.80;2.55;;;-2.70;99.90;;;;;;4952620;28;20066;-79
2021/12/21 03:12:11;;;;;;;3.17;2.92;;;-4.60;99.90;;;;;;4935143;29;20023;-78
2021/12/21 03:14:41;;;;;;;1.65;1.55;;;-4.70;99.90;;;;;;4935051;29;20023;-78
2021/12/21 03:17:07;;;;;;;;;;;-4.70;99.90;;;;;;4952783;29;20469;-79
2021/12/21 03:19:33;;;;;;;1.17;1.05;;;-3.90;99.90;;;;;;4951142;28;19969;-78
2021/12/21 03:21:59;;;;;;;3.80;3.47;;;-3.60;99.90;;;;;;4951944;29;20472;-84
2021/12/21 03:24:25;;;;;;;1.42;1.33;;;-4.90;99.90;;;;;;4952201;29;20050;-79
2021/12/21 03:26:50;;;;;;;1.60;1.27;;;-4.90;99.90;;;;;;4952142;29;20333;-77
2021/12/21 03:29:17;;;;;;;4.00;2.58;;;-4.90;99.90;;;;;;4934834;29;20042;-81
2021/12/21 03:31:43;;;;;;;6.47;2.63;;;-5.00;99.90;;;;;;4952019;29;20050;-79
2021/12/21 03:34:09;;;;;;;9.82;3.88;;;-5.00;99.90;;;;;;4952489;29;20190;-84
2021/12/21 03:36:35;;;;;;;5.82;2.05;;;-4.90;99.90;;;;;;4951849;29;20046;-80
2021/12/21 03:39:06;;;;;;;3.90;2.72;;;-5.00;99.90;;;;;;4934734;29;20121;-80
2021/12/21 03:41:33;;;;;;;3.17;2.97;;;-5.00;99.90;;;;;;4934725;29;20023;-78
2021/12/21 03:44:01;;;;;;;5.35;2.97;;;-5.00;99.90;;;;;;4951834;29;20070;-77
2021/12/21 03:46:29;;;;;;;5.28;1.77;;;-4.90;99.90;;;;;;4951772;29;20106;-79
2021/12/21 03:48:54;;;;;;;3.08;2.83;;;-4.80;99.90;;;;;;4951836;29;20031;-77
2021/12/21 03:51:21;;;;;;;3.60;3.30;;;-4.90;99.90;;;;;;4951728;29;20102;-77
2021/12/21 03:53:48;;;;;;;4.18;2.38;;;-4.80;99.90;;;;;;4934232;29;20055;-78
2021/12/21 03:58:40;;;;;;;3.97;1.48;;;-4.80;99.90;;;;;;4951522;29;20024;-78
2021/12/21 04:01:05;;;;;;;2.80;2.30;;;-4.00;99.90;;;;;;4951860;29;20381;-83
2021/12/21 04:03:31;;;;;;;1.60;1.50;;;-3.90;99.90;;;;;;4951612;29;20427;-77
2021/12/21 04:05:57;;;;;;;3.65;2.70;;;-3.90;99.90;;;;;;4951686;29;20395;-77
2021/12/21 04:08:23;;;;;;;2.58;2.45;;;-4.80;99.90;;;;;;4951258;29;20031;-77
2021/12/21 04:10:48;;;;;;;6.72;4.20;;;-4.70;99.90;;;;;;4934403;29;20023;-80
2021/12/21 04:13:14;;;;;;;1.42;1.27;;;-4.70;99.90;;;;;;4951614;29;20024;-81
2021/12/21 04:15:43;;;;;;;2.75;2.60;;;-2.80;99.90;;;;;;4951922;29;20031;-77
2021/12/21 04:18:12;;;;;;;1.80;1.70;;;-4.70;99.90;;;;;;4934573;29;20078;-81
2021/12/21 04:20:39;;;;;;;1.17;1.08;;;-4.70;99.90;;;;;;4934637;28;20039;-83
2021/12/21 04:23:05;;;;;;;2.00;1.80;;;-4.50;99.90;;;;;;4955876;29;20027;-79
2021/12/21 04:25:31;;;;;;;4.25;2.08;;;-4.60;99.90;;;;;;4953866;29;20512;-78
2021/12/21 04:27:57;;;;;;;0.60;0.60;;;-4.60;99.90;;;;;;4954110;28;20385;-81
2021/12/21 04:30:23;;;;;;;4.95;1.83;;;-4.60;99.90;;;;;;4936578;29;20042;-78
2021/12/21 04:32:48;;;;;;;1.67;1.05;;;-4.60;99.90;;;;;;4936811;29;20440;-82
2021/12/21 04:35:19;;;;;;;2.03;1.75;;;-4.60;99.90;;;;;;4936917;29;20101;-80
2021/12/21 04:37:54;;;;;;;2.30;2.10;;;-4.60;99.90;;;;;;4936487;29;20059;-77
2021/12/21 04:40:24;;;;;;;4.00;2.15;;;-4.60;99.90;;;;;;4937437;29;20059;-78
2021/12/21 04:42:50;;;;;;;2.92;1.98;;;-4.50;99.90;;;;;;4937790;29;20373;-78
2021/12/21 04:45:15;;;;;;;4.15;1.67;;;-4.50;99.90;;;;;;4953872;29;20019;-81
2021/12/21 04:47:41;;;;;;;5.45;1.38;;;-4.50;99.90;;;;;;4936419;29;20029;-83
2021/12/21 04:50:08;;;;;;;0.93;0.90;;;-4.40;99.90;;;;;;4953266;29;20027;-79
2021/12/21 04:52:35;;;;;;;6.93;2.47;;;-4.40;99.90;;;;;;4935930;29;20031;-78
2021/12/21 04:55:00;;;;;;;3.30;1.60;;;-4.40;99.90;;;;;;4936520;29;20027;-78
2021/12/21 04:57:26;;;;;;;2.97;2.22;;;-3.60;99.90;;;;;;4936301;29;20024;-77
2021/12/21 04:59:52;;;;;;;3.65;1.63;;;-3.50;99.90;;;;;;4937381;29;20027;-78
2021/12/21 05:02:18;;;;;;;1.58;1.48;;;-4.40;99.90;;;;;;4937591;29;20023;-78
2021/12/21 05:04:44;;;;;;;2.00;1.88;;;-4.40;99.90;;;;;;4954927;29;20395;-80
2021/12/21 05:07:09;;;;;;;8.23;2.47;;;-4.40;99.90;;;;;;4937155;29;20142;-79
2021/12/21 05:09:44;;;;;;;1.65;1.55;;;-4.40;99.90;;;;;;4937449;29;20031;-81
2021/12/21 05:12:13;;;;;;;3.17;2.15;;;-2.30;99.90;;;;;;4954949;29;20042;-81
2021/12/21 05:14:39;;;;;;;2.97;2.22;;;-4.50;99.90;;;;;;4937268;29;20027;-80
2021/12/21 05:17:05;;;;;;;5.35;3.90;;;-2.90;99.90;;;;;;4954997;29;20019;-80
2021/12/21 05:19:32;;;;;;;2.05;1.25;;;-3.00;99.90;;;;;;4954510;29;20082;-77
2021/12/21 05:21:57;;;;;;;2.63;1.92;;;-4.60;99.90;;;;;;4954269;29;20456;-79
2021/12/21 05:24:23;;;;;;;2.50;1.90;;;-4.60;99.90;;;;;;4936865;29;20503;-79
2021/12/21 05:26:49;;;;;;;2.83;1.75;;;-4.20;99.90;;;;;;4953995;28;20472;-78
2021/12/21 05:29:15;;;;;;;1.90;1.73;;;-3.50;99.90;;;;;;4954299;29;20067;-78
2021/12/21 05:31:40;;;;;;;4.20;3.83;;;-4.70;99.90;;;;;;4936880;29;20074;-80
2021/12/21 05:34:06;;;;;;;2.33;2.13;;;-4.70;99.90;;;;;;4953608;28;20082;-77
2021/12/21 05:36:32;;;;;;;4.03;2.35;;;-4.60;99.90;;;;;;4936501;29;20075;-78
2021/12/21 05:39:02;;;;;;;2.05;1.95;;;-4.70;99.90;;;;;;4954216;29;20507;-80
2021/12/21 05:41:41;;;;;;;2.53;2.28;;;-4.70;99.90;;;;;;4936843;29;20027;-80
2021/12/21 05:44:06;;;;;;;3.85;3.35;;;-4.70;99.90;;;;;;4954000;29;20424;-80
2021/12/21 05:46:32;;;;;;;1.98;1.88;;;-4.80;99.90;;;;;;4953888;29;20097;-79
2021/12/21 05:48:58;;;;;;;1.23;1.20;;;-3.10;99.90;;;;;;4936218;29;20059;-78
2021/12/21 05:51:23;;;;;;;1.08;1.08;;;-5.00;99.90;;;;;;4953774;29;20031;-77
2021/12/21 05:53:49;;;;;;;3.67;2.90;;;-5.00;99.90;;;;;;4953780;29;20031;-77
2021/12/21 05:56:15;;;;;;;2.85;1.75;;;-5.00;99.90;;;;;;4953853;29;20057;-77
2021/12/21 05:58:41;;;;;;;1.92;1.83;;;-5.00;99.90;;;;;;4953672;29;20027;-78
2021/12/21 06:01:07;;;;;;;3.55;2.88;;;-4.60;99.90;;;;;;4953893;29;20027;-78
2021/12/21 06:03:33;;;;;;;5.82;1.58;;;-5.10;99.90;;;;;;4953423;28;20035;-79
2021/12/21 06:05:59;;;;;;;2.15;1.95;;;-4.50;99.90;;;;;;4936073;29;20388;-78
2021/12/21 06:08:25;;;;;;;2.30;2.17;;;-5.10;99.90;;;;;;4953294;29;20093;-78
2021/12/21 06:10:53;;;;;;;3.42;2.17;;;-4.60;99.90;;;;;;4953539;29;20473;-80
2021/12/21 06:13:46;;;;;;;1.60;1.57;;;-5.10;99.90;;;;;;4953354;29;20049;-77
2021/12/21 06:26:48;;;;;;;3.13;1.67;;;-4.90;99.90;;;;;;4953134;29;20055;-78
2021/12/21 06:29:14;;;;;;;4.78;3.20;;;-4.90;99.90;;;;;;4952858;29;20440;-77
2021/12/21 06:31:40;;;;;;;2.88;2.63;;;-4.80;99.90;;;;;;4953181;29;20354;-77
2021/12/21 06:34:06;;;;;;;2.35;2.15;;;-4.70;99.90;;;;;;4952934;29;20051;-77
2021/12/21 06:36:32;;;;;;;3.45;2.30;;;-4.90;99.90;;;;;;4952938;29;20527;-78
2021/12/21 06:38:58;;;;;;;7.10;3.63;;;-4.90;99.90;;;;;;4935408;29;20039;-78
2021/12/21 06:41:24;;;;;;;7.90;1.90;;;-4.90;99.90;;;;;;4953126;29;20019;-78
2021/12/21 06:43:50;;;;;;;4.07;2.33;;;-3.90;99.90;;;;;;4952561;28;20408;-78
2021/12/21 06:46:44;;;;;;;2.92;2.72;;;-5.00;99.90;;;;;;4935827;29;20023;-77
2021/12/21 06:51:51;;;;;;;4.57;2.42;;;-5.00;99.90;;;;;;4952832;29;20099;-78
2021/12/21 06:54:18;;;;;;;6.25;2.05;;;-5.00;99.90;;;;;;4935392;29;20424;-79
2021/12/21 06:56:44;;;;;;;5.68;3.35;;;-5.00;99.90;;;;;;4952947;29;20456;-79
2021/12/21 06:59:10;;;;;;;4.20;3.50;;;-5.10;99.90;;;;;;4935362;29;20031;-76
2021/12/21 07:01:38;;;;;;;2.88;2.63;;;-5.10;99.90;;;;;;4952574;29;20038;-77
2021/12/21 07:04:06;;;;;;;1.48;1.48;;;-5.20;99.90;;;;;;4952283;29;20038;-77
2021/12/21 07:06:34;;;;;;;11.60;4.43;;;-5.20;99.90;;;;;;4934625;29;20120;-83
2021/12/21 07:09:07;;;;;;;1.75;1.65;;;-5.30;99.90;;;;;;4934998;29;20027;-81
2021/12/21 07:19:33;;;;;;;9.70;3.25;;;-5.30;99.90;;;;;;4952488;29;20038;-79
2021/12/21 07:21:58;;;;;;;6.93;3.55;;;-5.30;99.90;;;;;;4952041;29;20399;-82
2021/12/21 07:24:25;;;;;;;2.25;1.35;;;-5.30;99.90;;;;;;4934883;29;20043;-77
2021/12/21 07:26:51;;;;;;;6.90;2.58;;;-5.30;99.90;;;;;;4952161;28;20041;-77
2021/12/21 07:29:17;;;;;;;1.80;1.70;;;-5.30;99.90;;;;;;4934861;29;20039;-78
2021/12/21 07:31:44;;;;;;;3.13;2.88;;;-5.20;99.90;;;;;;4952108;29;20055;-78
2021/12/21 07:34:09;;;;;;;8.80;2.65;;;-5.20;99.90;;;;;;4934894;29;20040;-79
2021/12/21 07:36:35;;;;;;;3.33;3.10;;;-5.10;99.90;;;;;;4934855;29;20028;-77
2021/12/21 07:39:06;;;;;;;4.68;3.55;;;-5.10;99.90;;;;;;4934969;29;20023;-78
2021/12/21 07:41:33;;;;;;;5.60;5.07;;;-5.00;99.90;;;;;;4951915;29;20062;-81
2021/12/21 07:43:58;;;;;;;11.07;1.40;;;-2.30;99.90;;;;;;4951826;29;20058;-79
2021/12/21 07:46:24;;;;;;;2.70;1.70;;;-4.90;99.90;;;;;;4952079;29;20479;-84
2021/12/21 07:48:50;;;;;;;4.75;1.75;;;-4.70;99.90;;;;;;4934515;29;20031;-78
2021/12/21 07:51:16;;;;;;;7.90;4.68;;;-4.60;99.90;;;;;;4951311;29;20508;-79
2021/12/21 07:53:42;;;;;;;4.43;2.92;;;-4.20;99.90;;;;;;4934526;29;20035;-77
2021/12/21 07:56:09;;;;;;;5.10;1.67;;;-4.50;99.90;;;;;;4934033;29;20488;-80
2021/12/21 07:58:36;;;;;;;2.83;1.65;;;-4.40;99.90;;;;;;4941381;29;20370;-79
2021/12/21 08:01:05;;;;;;;11.82;4.20;;;-3.40;99.90;;;;;;4919745;29;20027;-84
2021/12/21 08:03:33;;;;;;;2.40;2.15;;;-3.60;99.90;;;;;;4931310;29;20061;-84
2021/12/21 08:06:00;;;;;;;5.93;2.73;;;-4.00;99.90;;;;;;4915347;29;20028;-80
2021/12/21 08:08:29;;;;;;;7.47;2.35;;;-4.00;99.90;;;;;;4930404;29;20027;-79
2021/12/21 08:11:10;;;;;;;;;;;-3.80;99.90;;;;;;4931845;29;20034;-83
2021/12/21 08:13:38;;;;;;;2.08;1.98;;;-3.80;99.90;;;;;;4915531;29;19942;-81
2021/12/21 08:16:04;;;;;;;1.98;1.75;;;-2.10;99.90;;;;;;4931125;29;20111;-80
2021/12/21 08:18:30;;;;;;;3.70;2.85;;;-3.70;99.90;;;;;;4930381;29;20095;-79
2021/12/21 08:20:56;;;;;;;6.47;3.92;;;-3.60;99.90;;;;;;4930726;29;20031;-80
2021/12/21 08:23:22;;;;;;;4.68;2.70;;;-3.50;99.90;;;;;;4931008;29;20048;-79
2021/12/21 08:25:49;;;;;;;5.25;4.35;;;-3.10;99.90;;;;;;4932904;29;20433;-80
2021/12/21 08:28:14;;;;;;;4.88;3.60;;;-1.90;99.90;;;;;;4932656;29;20464;-80
2021/12/21 08:30:40;;;;;;;7.18;3.92;;;-2.10;99.90;;;;;;4932800;29;20020;-79
2021/12/21 08:33:06;;;;;;;4.20;3.10;;;-2.30;99.90;;;;;;4914934;29;20020;-79
2021/12/21 08:35:33;;;;;;;5.38;2.65;;;-3.30;99.90;;;;;;4931282;29;20047;-79
2021/12/21 08:38:04;;;;;;;8.20;3.75;;;-2.00;99.90;;;;;;4930522;29;20036;-79
2021/12/21 08:40:38;;;;;;;9.02;5.28;;;-3.20;99.90;;;;;;4930950;29;20051;-79
2021/12/21 08:43:09;;;;;;;4.57;4.05;;;-3.20;99.90;;;;;;4931834;29;20032;-80
2021/12/21 08:45:37;;;;;;;6.38;4.97;;;-3.20;99.90;;;;;;4930759;29;20370;-79
2021/12/21 08:48:03;;;;;;;1.63;1.33;;;-1.70;99.90;;;;;;4930750;29;20027;-79
2021/12/21 08:50:29;;;;;;;2.40;2.22;;;-2.90;99.90;;;;;;4930735;29;20078;-79
2021/12/21 08:52:56;;;;;;;2.90;2.67;;;-1.40;99.90;;;;;;4931878;29;20532;-77
2021/12/21 08:55:22;;;;;;;6.30;2.17;;;-2.20;99.90;;;;;;4930394;29;20024;-80
2021/12/21 08:57:48;;;;;;;4.30;3.60;;;-2.50;99.90;;;;;;4930786;29;20410;-79
2021/12/21 09:00:14;;;;;;;6.10;2.88;;;-2.10;99.90;;;;;;4930614;29;20055;-77
2021/12/21 09:02:40;;;;;;;7.70;3.22;;;-2.40;99.90;;;;;;4930214;29;20093;-80
2021/12/21 09:05:12;;;;;;;6.32;2.63;;;-2.00;99.90;;;;;;4931421;29;20035;-82
2021/12/21 09:07:42;;;;;;;6.43;3.75;;;-2.30;99.90;;;;;;4930412;29;20159;-80
2021/12/21 09:10:09;;;;;;;7.72;4.03;;;-2.40;99.90;;;;;;4934188;29;20105;-81
2021/12/21 09:12:35;;;;;;;5.10;1.73;;;-2.30;99.90;;;;;;4934066;29;20031;-81
2021/12/21 09:15:01;;;;;;;4.70;2.40;;;-2.40;99.90;;;;;;4935321;29;20374;-77
2021/12/21 09:17:30;;;;;;;5.32;3.50;;;-1.60;99.90;;;;;;4935282;29;20028;-82
2021/12/21 09:19:56;;;;;;;3.63;2.45;;;-1.80;99.90;;;;;;4935195;29;20389;-79
2021/12/21 09:22:22;;;;;;;2.35;1.83;;;-2.10;99.90;;;;;;4933209;29;20053;-80
2021/12/21 09:24:49;;;;;;;7.20;4.88;;;-2.40;99.90;;;;;;4934808;29;20031;-82
2021/12/21 09:27:16;;;;;;;4.65;3.33;;;-1.70;99.90;;;;;;4934499;29;20405;-80
2021/12/21 09:29:42;;;;;;;7.57;3.05;;;-2.40;99.90;;;;;;4933973;29;20028;-80
2021/12/21 09:32:12;;;;;;;2.58;2.22;;;-2.30;99.90;;;;;;4935067;29;20336;-79
2021/12/21 09:34:39;;;;;;;4.38;2.38;;;-1.70;99.90;;;;;;4936923;29;20149;-80
2021/12/21 09:37:05;;;;;;;4.90;3.60;;;-2.10;99.90;;;;;;4936031;29;20042;-79
2021/12/21 09:39:31;;;;;;;10.50;4.22;;;-1.90;99.90;;;;;;4954235;29;20037;-85
2021/12/21 09:41:57;;;;;;;7.32;4.53;;;-1.60;99.90;;;;;;4935753;29;20118;-80
2021/12/21 09:44:23;;;;;;;9.40;4.18;;;-1.90;99.90;;;;;;4917756;29;20040;-81
2021/12/21 09:46:49;;;;;;;3.80;2.92;;;-1.70;99.90;;;;;;4900815;29;20083;-86
2021/12/21 09:49:15;;;;;;;8.57;4.72;;;-1.60;99.90;;;;;;4914531;29;20024;-81
2021/12/21 09:51:41;;;;;;;6.93;3.53;;;-1.50;99.90;;;;;;4897375;29;20459;-81
2021/12/21 09:54:08;;;;;;;6.35;4.22;;;-1.50;99.90;;;;;;4914446;29;20462;-80
2021/12/21 09:56:34;;;;;;;5.95;3.58;;;-1.30;99.90;;;;;;4917342;29;20484;-81
2021/12/21 09:59:01;;;;;;;10.63;4.05;;;-1.00;99.90;;;;;;4915550;29;20024;-80
2021/12/21 10:01:27;;;;;;;5.05;3.28;;;-0.90;99.90;;;;;;4915269;29;20284;-80
2021/12/21 10:03:52;;;;;;;1.40;1.40;;;-1.10;99.90;;;;;;4932358;29;20298;-80
2021/12/21 10:06:18;;;;;;;7.47;3.92;;;-1.40;99.90;;;;;;4932450;29;20362;-80
2021/12/21 10:08:44;;;;;;;4.03;3.17;;;-1.10;99.90;;;;;;4932592;29;20068;-83
2021/12/21 10:11:22;;;;;;;1.45;1.35;;;-0.60;99.90;;;;;;4932958;29;20553;-81
2021/12/21 10:13:48;;;;;;;8.77;4.93;;;-1.20;99.90;;;;;;4915797;29;20038;-82
2021/12/21 10:16:19;;;;;;;2.72;2.58;;;-1.60;99.90;;;;;;4933871;29;20424;-80
2021/12/21 10:18:44;;;;;;;6.50;4.25;;;-1.50;99.90;;;;;;4934191;29;20038;-80
2021/12/21 10:21:12;;;;;;;5.90;3.67;;;-0.20;99.90;;;;;;4933869;29;20508;-82
2021/12/21 10:23:44;;;;;;;8.35;3.67;;;-1.20;99.90;;;;;;4917369;29;20489;-83
2021/12/21 10:26:11;;;;;;;9.30;5.22;;;-1.30;99.90;;;;;;4916904;29;20537;-81
2021/12/21 10:29:09;;;;;;;8.80;4.40;;;-0.90;99.90;;;;;;4916810;29;20052;-80
2021/12/21 10:31:40;;;;;;;5.55;3.22;;;-1.20;99.90;;;;;;4922630;29;20042;-81
2021/12/21 10:34:14;;;;;;;3.90;3.40;;;-0.70;99.90;;;;;;4933934;29;20051;-81
2021/12/21 10:36:49;;;;;;;11.85;5.07;;;-0.50;99.90;;;;;;4916751;29;20024;-80
2021/12/21 10:39:21;;;;;;;11.23;5.43;;;-0.90;99.90;;;;;;4934273;29;20028;-81
2021/12/21 10:41:47;;;;;;;21.30;5.47;;;-0.70;99.90;;;;;;4912730;29;20521;-81
2021/12/21 10:44:15;;;;;;;8.80;5.20;;;-0.90;99.90;;;;;;4932953;29;20197;-80
2021/12/21 10:46:45;;;;;;;5.80;3.92;;;-0.90;99.90;;;;;;4916706;29;20095;-83
2021/12/21 10:49:11;;;;;;;13.25;5.97;;;-0.90;99.90;;;;;;4932033;29;20433;-84
2021/12/21 10:51:49;;;;;;;14.55;8.20;;;-0.70;99.90;;;;;;4933065;29;20067;-84
2021/12/21 10:54:29;;;;;;;11.17;5.90;;;-0.60;99.90;;;;;;4933846;29;20035;-80
2021/12/21 10:57:05;;;;;;;23.33;10.55;;;-0.40;99.90;;;;;;4933565;29;20024;-80
2021/12/21 10:59:37;;;;;;;9.25;6.25;;;-0.30;99.90;;;;;;4932514;29;20031;-87
2021/12/21 11:02:13;;;;;;;6.32;5.20;;;-0.40;99.90;;;;;;4932021;29;20138;-80
2021/12/21 11:04:45;;;;;;;9.07;6.63;;;-0.30;99.90;;;;;;4932205;29;20047;-80
2021/12/21 11:07:37;;;;;;;11.20;6.60;;;-0.30;99.90;;;;;;4931618;29;20562;-84
2021/12/21 11:10:27;;;;;;;6.22;4.68;;;-0.10;99.90;;;;;;4933342;29;20097;-86
2021/12/21 11:12:54;;;;;;;;;;;-0.10;99.90;;;;;;4916377;29;20083;-85
2021/12/21 11:15:32;;;;;;;13.57;6.10;;;-0.20;99.90;;;;;;4923369;29;19914;-82
2021/12/21 11:18:04;;;;;;;9.77;6.53;;;-0.10;99.90;;;;;;4909781;29;20028;-79
2021/12/21 11:20:30;;;;;;;10.18;6.80;;;-0.10;99.90;;;;;;4911372;29;20020;-81
2021/12/21 11:22:56;;;;;;;10.35;5.90;;;-0.10;99.90;;;;;;4912344;29;20028;-83
2021/12/21 11:25:23;;;;;;;7.10;5.20;;;-0.10;99.90;;;;;;4913179;29;20028;-80
2021/12/21 11:27:49;;;;;;;19.05;6.10;;;0.00;99.90;;;;;;4912690;29;20405;-80
2021/12/21 11:30:19;;;;;;;12.80;6.05;;;-0.10;99.90;;;;;;4892765;29;20039;-80
2021/12/21 11:32:49;;;;;;;12.68;6.45;;;-0.10;99.90;;;;;;4912327;29;20051;-80
2021/12/21 11:37:47;;;;;;;9.38;6.70;;;0.00;99.90;;;;;;4914796;29;20516;-81
2021/12/21 11:40:20;;;;;;;16.15;8.25;;;0.00;99.90;;;;;;4915052;29;20036;-87
2021/12/21 11:42:51;;;;;;;15.93;8.65;;;0.10;99.90;;;;;;4912371;29;20299;-83
2021/12/21 11:45:39;;;;;;;5.47;4.97;;;0.10;99.90;;;;;;4913510;29;20032;-82
2021/12/21 11:48:10;;;;;;;8.93;5.07;;;0.20;99.90;;;;;;4896851;29;20196;-85
2021/12/21 11:50:41;;;;;;;12.13;6.15;;;0.40;99.90;;;;;;4913889;29;20083;-78
2021/12/21 11:53:13;;;;;;;10.75;6.28;;;0.30;99.90;;;;;;4914333;29;20111;-80
2021/12/21 11:55:42;;;;;;;8.18;6.38;;;0.30;99.90;;;;;;4897074;29;20028;-86
2021/12/21 11:58:24;;;;;;;11.47;6.27;;;0.30;99.90;;;;;;4913179;29;20036;-79
2021/12/21 12:00:57;;;;;;;19.17;6.50;;;0.40;99.90;;;;;;4896658;29;20426;-80
2021/12/21 12:03:26;;;;;;;8.70;6.45;;;0.50;99.90;;;;;;4913726;29;20507;-79
2021/12/21 12:06:01;;;;;;;8.45;5.75;;;0.50;99.90;;;;;;4896341;29;20419;-80
2021/12/21 12:08:43;;;;;;;10.88;5.50;;;0.40;99.90;;;;;;4897472;29;20028;-86
2021/12/21 12:11:20;;;;;;;14.38;8.23;;;0.40;99.90;;;;;;4897568;29;20032;-89
2021/12/21 12:13:46;;;;;;;6.78;5.43;;;0.50;99.90;;;;;;4913656;29;20148;-79
2021/12/21 12:16:16;;;;;;;9.07;4.47;;;0.70;99.90;;;;;;4914517;29;20506;-81
2021/12/21 12:18:50;;;;;;;5.10;4.20;;;0.80;99.90;;;;;;4914740;29;20032;-90
2021/12/21 12:21:25;;;;;;;4.30;3.50;;;0.90;99.90;;;;;;4897137;29;20024;-78
2021/12/21 12:23:54;;;;;;;11.50;6.18;;;0.80;99.90;;;;;;4914461;29;20371;-83
2021/12/21 12:26:34;;;;;;;7.65;4.18;;;0.90;99.90;;;;;;4914434;29;20045;-87
2021/12/21 12:29:19;;;;;;;8.13;3.40;;;0.90;99.90;;;;;;4896986;29;20453;-84
2021/12/21 12:32:08;;;;;;;10.93;5.47;;;1.00;99.90;;;;;;4914043;29;20048;-80
2021/12/21 12:34:38;;;;;;;9.20;4.53;;;1.10;99.90;;;;;;4897063;29;20044;-79
2021/12/21 12:37:46;;;;;;;15.65;4.75;;;1.10;99.90;;;;;;4914452;29;20028;-80
2021/12/21 12:40:14;;;;;;;11.07;5.47;;;1.00;99.90;;;;;;4901614;29;20465;-79
2021/12/21 12:42:40;;;;;;;9.73;5.75;;;1.00;99.90;;;;;;4917100;29;20493;-87
2021/12/21 12:45:15;;;;;;;10.40;4.72;;;1.10;99.90;;;;;;4917961;29;20034;-82
2021/12/21 12:47:45;;;;;;;3.70;3.38;;;1.10;99.90;;;;;;4900689;29;20028;-84
2021/12/21 12:50:19;;;;;;;11.10;5.40;;;1.20;99.90;;;;;;4900637;29;20535;-79
2021/12/21 12:52:53;;;;;;;6.13;4.13;;;1.00;99.90;;;;;;4916461;29;20032;-79
2021/12/21 12:55:20;;;;;;;2.38;2.28;;;0.90;99.90;;;;;;4900654;29;20047;-83
2021/12/21 12:58:11;;;;;;;9.20;5.95;;;0.90;99.90;;;;;;4933642;29;20027;-81
2021/12/21 13:00:40;;;;;;;4.47;2.55;;;0.90;99.90;;;;;;4936457;29;20032;-79
2021/12/21 13:03:08;;;;;;;11.30;5.85;;;0.90;99.90;;;;;;4936420;29;20564;-83
2021/12/21 13:05:56;;;;;;;7.75;4.93;;;0.80;99.90;;;;;;4919250;29;20039;-79
2021/12/21 13:08:26;;;;;;;8.05;6.53;;;0.70;99.90;;;;;;4918986;29;20024;-80
2021/12/21 13:10:58;;;;;;;1.95;1.83;;;0.60;99.90;;;;;;4919271;29;20544;-80
2021/12/21 13:13:33;;;;;;;9.18;4.70;;;0.80;99.90;;;;;;4936153;29;20031;-80
2021/12/21 13:16:13;;;;;;;7.95;4.72;;;0.80;99.90;;;;;;4936905;29;20028;-81
2021/12/21 13:18:46;;;;;;;6.60;5.50;;;0.90;99.90;;;;;;4919704;29;20023;-80
2021/12/21 13:21:21;;;;;;;22.92;6.93;;;0.80;99.90;;;;;;4919173;29;20286;-80
2021/12/21 13:23:50;;;;;;;10.32;4.22;;;0.70;99.90;;;;;;4919600;29;20063;-80
2021/12/21 13:26:16;;;;;;;18.37;6.67;;;0.70;99.90;;;;;;4918988;29;20027;-80
2021/12/21 13:28:51;;;;;;;10.85;4.65;;;0.50;99.90;;;;;;4935837;29;20292;-81
2021/12/21 13:31:19;;;;;;;12.82;5.75;;;0.50;99.90;;;;;;4935932;29;20579;-80
2021/12/21 13:33:51;;;;;;;12.45;5.88;;;0.50;99.90;;;;;;4919239;29;20118;-79
2021/12/21 13:36:16;;;;;;;8.73;5.70;;;0.50;99.90;;;;;;4937430;29;20027;-78
2021/12/21 13:38:42;;;;;;;12.05;5.72;;;0.50;99.90;;;;;;4919273;29;20428;-79
2021/12/21 13:41:11;;;;;;;19.05;6.65;;;0.60;99.90;;;;;;4918452;29;20063;-80
2021/12/21 13:43:39;;;;;;;6.25;4.75;;;0.60;99.90;;;;;;4918511;29;20032;-79
2021/12/21 13:46:08;;;;;;;7.35;3.75;;;0.40;99.90;;;;;;4935919;29;20047;-81
2021/12/21 13:48:36;;;;;;;9.40;5.97;;;0.30;99.90;;;;;;4935415;29;20042;-81
2021/12/21 13:51:16;;;;;;;11.60;5.63;;;0.40;99.90;;;;;;4918567;29;20389;-82
2021/12/21 13:53:49;;;;;;;17.52;4.88;;;0.30;99.90;;;;;;4918077;29;20485;-81
2021/12/21 13:56:24;;;;;;;17.52;4.70;;;0.30;99.90;;;;;;4918283;29;20020;-82
2021/12/21 13:58:54;;;;;;;10.32;5.13;;;0.10;99.90;;;;;;4935788;29;20107;-79